Time;durP1;ratioP1;P1;durP2;ratioP2;P2;SDS_P1;SDS_P2;PMS_P1;PMS_P2;Temp;Humidity;BMP_temperature;BMP_pressure;BME280_temperature;BME280_humidity;BME280_pressure;Samples;Min_cycle;Max_cycle;Signal;HPM_P1;HPM_P2
2023/07/10 00:02:25;;;;;;;5.60;3.97;;;;;;;;;;5048776;28;20185;-72
2023/07/10 00:04:52;;;;;;;6.23;4.70;;;;;;;;;;5035643;28;21057;-72
2023/07/10 00:07:18;;;;;;;10.30;4.60;;;;;;;;;;5030864;28;20544;-71
2023/07/10 00:09:44;;;;;;;9.30;4.93;;;;;;;;;;5031283;28;20175;-71
2023/07/10 00:12:14;;;;;;;6.93;5.13;;;;;;;;;;5013789;28;20226;-71
2023/07/10 00:14:40;;;;;;;9.27;5.00;;;;;;;;;;5030387;28;20194;-78
2023/07/10 00:17:08;;;;;;;12.17;5.07;;;;;;;;;;5030733;28;20284;-71
2023/07/10 00:19:34;;;;;;;7.50;5.20;;;;;;;;;;5031004;28;20227;-71
2023/07/10 00:22:00;;;;;;;13.17;5.63;;;;;;;;;;5030906;28;20653;-71
2023/07/10 00:24:26;;;;;;;10.73;5.13;;;;;;;;;;5030851;28;20574;-71
2023/07/10 00:26:53;;;;;;;8.13;4.77;;;;;;;;;;5030789;28;20175;-71
2023/07/10 00:29:31;;;;;;;8.97;5.00;;;;;;;;;;5029755;28;20258;-70
2023/07/10 00:31:57;;;;;;;8.63;5.07;;;;;;;;;;5029510;28;20192;-71
2023/07/10 00:34:25;;;;;;;10.07;5.23;;;;;;;;;;5029453;28;20198;-75
2023/07/10 00:36:51;;;;;;;7.73;4.70;;;;;;;;;;5034024;28;20564;-71
2023/07/10 00:39:20;;;;;;;7.00;5.03;;;;;;;;;;5050667;28;20218;-74
2023/07/10 00:41:48;;;;;;;10.43;5.50;;;;;;;;;;5049923;28;20541;-71
2023/07/10 00:44:15;;;;;;;9.00;4.97;;;;;;;;;;5049421;28;20637;-72
2023/07/10 00:46:47;;;;;;;9.50;4.80;;;;;;;;;;5050566;28;20283;-71
2023/07/10 00:49:16;;;;;;;5.40;4.10;;;;;;;;;;5050479;28;20257;-71
2023/07/10 00:51:45;;;;;;;5.97;4.83;;;;;;;;;;5049912;28;20203;-71
2023/07/10 00:54:20;;;;;;;6.13;4.83;;;;;;;;;;5030448;28;20281;-72
2023/07/10 00:56:47;;;;;;;10.07;5.60;;;;;;;;;;5039556;28;20712;-73
2023/07/10 00:59:23;;;;;;;12.77;6.00;;;;;;;;;;5034328;28;20198;-71
2023/07/10 01:02:15;;;;;;;10.03;5.93;;;;;;;;;;5048271;28;20645;-71
2023/07/10 01:04:44;;;;;;;11.03;5.77;;;;;;;;;;5009751;28;20313;-72
2023/07/10 01:07:12;;;;;;;10.70;6.30;;;;;;;;;;5034204;28;20189;-75
2023/07/10 01:09:39;;;;;;;8.10;5.63;;;;;;;;;;5050726;28;20179;-71
2023/07/10 01:12:06;;;;;;;9.37;5.30;;;;;;;;;;5050261;28;20670;-71
2023/07/10 01:14:34;;;;;;;7.33;5.20;;;;;;;;;;5049279;28;20315;-73
2023/07/10 01:17:03;;;;;;;10.03;5.17;;;;;;;;;;5016168;28;20602;-71
2023/07/10 01:19:30;;;;;;;8.40;4.63;;;;;;;;;;5050545;28;20185;-71
2023/07/10 01:21:56;;;;;;;8.63;5.10;;;;;;;;;;5050473;28;20173;-73
2023/07/10 01:24:22;;;;;;;6.40;4.83;;;;;;;;;;5045422;28;20194;-71
2023/07/10 01:26:49;;;;;;;7.47;4.90;;;;;;;;;;5032666;28;20642;-71
2023/07/10 01:29:25;;;;;;;7.93;4.70;;;;;;;;;;5032435;28;20183;-72
2023/07/10 01:31:53;;;;;;;5.97;4.47;;;;;;;;;;5034320;28;20265;-71
2023/07/10 01:34:20;;;;;;;7.33;4.53;;;;;;;;;;5032936;28;20298;-71
2023/07/10 01:36:47;;;;;;;8.40;4.77;;;;;;;;;;5033913;28;20206;-71
2023/07/10 01:39:17;;;;;;;7.37;4.77;;;;;;;;;;5032401;28;20289;-72
2023/07/10 01:41:44;;;;;;;7.57;5.17;;;;;;;;;;5033033;28;20210;-71
2023/07/10 01:44:40;;;;;;;7.27;5.13;;;;;;;;;;5033568;28;20212;-71
2023/07/10 01:47:07;;;;;;;7.60;5.33;;;;;;;;;;5024536;28;20194;-71
2023/07/10 01:49:39;;;;;;;10.23;5.47;;;;;;;;;;5016102;28;20657;-71
2023/07/10 01:52:07;;;;;;;12.60;5.70;;;;;;;;;;5052394;28;20270;-70
2023/07/10 01:54:33;;;;;;;8.30;5.53;;;;;;;;;;5034695;28;20691;-71
2023/07/10 01:56:59;;;;;;;6.93;4.73;;;;;;;;;;5033171;28;20182;-71
2023/07/10 01:59:26;;;;;;;11.43;5.60;;;;;;;;;;5033219;28;20623;-71
2023/07/10 02:01:53;;;;;;;6.60;5.10;;;;;;;;;;5051473;28;20182;-74
2023/07/10 02:04:19;;;;;;;11.60;5.50;;;;;;;;;;5051899;28;20195;-71
2023/07/10 02:06:46;;;;;;;8.63;5.40;;;;;;;;;;5053393;28;20197;-71
2023/07/10 02:09:12;;;;;;;10.93;5.73;;;;;;;;;;5051657;28;20178;-71
2023/07/10 02:11:38;;;;;;;7.63;5.67;;;;;;;;;;5035484;28;20549;-71
2023/07/10 02:14:05;;;;;;;7.93;5.47;;;;;;;;;;5053261;28;20196;-70
2023/07/10 02:16:32;;;;;;;10.53;6.10;;;;;;;;;;5051728;28;20257;-71
2023/07/10 02:18:58;;;;;;;7.83;5.17;;;;;;;;;;5037438;28;20216;-71
2023/07/10 02:21:24;;;;;;;7.30;5.47;;;;;;;;;;5044584;28;20181;-71
2023/07/10 02:23:51;;;;;;;10.43;5.37;;;;;;;;;;5031692;28;20724;-76
2023/07/10 02:26:17;;;;;;;10.43;5.70;;;;;;;;;;5031792;28;20189;-74
2023/07/10 02:28:43;;;;;;;8.63;5.80;;;;;;;;;;5033498;28;20672;-72
2023/07/10 02:31:10;;;;;;;7.10;5.07;;;;;;;;;;5032903;28;20171;-71
2023/07/10 02:33:36;;;;;;;7.67;5.17;;;;;;;;;;5031696;28;20670;-71
2023/07/10 02:36:03;;;;;;;7.73;4.90;;;;;;;;;;5031609;28;20178;-71
2023/07/10 02:38:29;;;;;;;8.00;5.70;;;;;;;;;;5032059;28;20205;-72
2023/07/10 02:40:56;;;;;;;8.93;5.67;;;;;;;;;;5032061;28;20265;-72
2023/07/10 02:43:22;;;;;;;8.47;5.80;;;;;;;;;;5032538;28;20285;-71
2023/07/10 02:45:48;;;;;;;8.23;5.30;;;;;;;;;;5031479;28;20658;-71
2023/07/10 02:48:14;;;;;;;5.90;5.20;;;;;;;;;;5039540;28;20200;-72
2023/07/10 02:50:42;;;;;;;6.80;5.40;;;;;;;;;;5031486;28;20183;-71
2023/07/10 02:53:08;;;;;;;11.93;5.60;;;;;;;;;;5032094;28;20600;-73
2023/07/10 02:55:34;;;;;;;8.77;5.57;;;;;;;;;;5032502;28;20568;-73
2023/07/10 02:58:00;;;;;;;6.97;5.03;;;;;;;;;;5031902;28;20195;-72
2023/07/10 03:00:26;;;;;;;8.17;5.50;;;;;;;;;;5032462;28;20246;-71
2023/07/10 03:02:54;;;;;;;6.87;5.27;;;;;;;;;;5046871;28;20178;-71
2023/07/10 03:05:20;;;;;;;10.23;5.57;;;;;;;;;;5044379;28;20173;-71
2023/07/10 03:07:46;;;;;;;10.27;6.00;;;;;;;;;;5041261;28;20268;-74
2023/07/10 03:10:12;;;;;;;9.47;6.47;;;;;;;;;;5050010;28;20189;-74
2023/07/10 03:12:38;;;;;;;8.23;6.53;;;;;;;;;;5047883;28;20182;-74
2023/07/10 03:15:05;;;;;;;11.90;7.13;;;;;;;;;;5052038;28;20581;-73
2023/07/10 03:17:32;;;;;;;17.97;9.13;;;;;;;;;;5015291;28;20210;-72
2023/07/10 03:19:59;;;;;;;17.60;9.23;;;;;;;;;;5031516;28;20211;-72
2023/07/10 03:22:26;;;;;;;15.40;7.93;;;;;;;;;;5051742;28;20182;-71
2023/07/10 03:24:52;;;;;;;8.33;6.60;;;;;;;;;;5034714;28;20729;-71
2023/07/10 03:27:19;;;;;;;8.50;6.27;;;;;;;;;;5031754;28;20159;-71
2023/07/10 03:29:45;;;;;;;11.20;6.77;;;;;;;;;;5031611;28;20320;-74
2023/07/10 03:32:11;;;;;;;7.83;6.40;;;;;;;;;;5043434;28;20186;-73
2023/07/10 03:34:37;;;;;;;8.60;6.57;;;;;;;;;;5037095;28;20207;-75
2023/07/10 03:37:03;;;;;;;10.43;6.83;;;;;;;;;;5031532;28;20246;-73
2023/07/10 03:39:29;;;;;;;8.43;6.17;;;;;;;;;;5035462;28;20178;-73
2023/07/10 03:41:56;;;;;;;10.30;6.60;;;;;;;;;;5050772;28;20181;-72
2023/07/10 03:44:22;;;;;;;10.17;6.80;;;;;;;;;;5051429;28;20217;-71
2023/07/10 03:46:48;;;;;;;11.20;7.30;;;;;;;;;;5051173;28;20181;-71
2023/07/10 03:49:14;;;;;;;9.63;6.27;;;;;;;;;;5051371;28;20178;-72
2023/07/10 03:51:40;;;;;;;9.53;7.30;;;;;;;;;;5032379;28;20178;-72
2023/07/10 03:54:07;;;;;;;9.27;6.80;;;;;;;;;;5041379;28;20748;-71
2023/07/10 03:56:34;;;;;;;10.37;6.90;;;;;;;;;;5051480;28;20273;-71
2023/07/10 03:59:00;;;;;;;9.67;7.60;;;;;;;;;;5044646;28;20265;-72
2023/07/10 04:01:27;;;;;;;11.73;7.37;;;;;;;;;;5031398;28;20273;-72
2023/07/10 04:03:53;;;;;;;8.40;7.13;;;;;;;;;;5039448;28;20205;-71
2023/07/10 04:06:19;;;;;;;7.63;6.43;;;;;;;;;;5051007;28;20174;-72
2023/07/10 04:08:46;;;;;;;10.63;6.80;;;;;;;;;;5050858;28;20209;-71
2023/07/10 04:11:17;;;;;;;8.20;6.43;;;;;;;;;;5051061;28;20204;-72
2023/07/10 04:13:43;;;;;;;8.07;6.23;;;;;;;;;;5051114;28;20198;-71
2023/07/10 04:16:18;;;;;;;7.60;6.20;;;;;;;;;;5050297;28;20174;-71
2023/07/10 04:18:46;;;;;;;8.87;6.90;;;;;;;;;;5050577;28;20284;-72
2023/07/10 04:21:14;;;;;;;8.63;6.90;;;;;;;;;;5051446;28;20170;-71
2023/07/10 04:23:40;;;;;;;9.73;7.17;;;;;;;;;;5033199;28;20210;-74
2023/07/10 04:26:07;;;;;;;9.20;7.40;;;;;;;;;;5036107;28;20677;-74
2023/07/10 04:28:33;;;;;;;8.73;6.90;;;;;;;;;;5047005;28;20188;-72
2023/07/10 04:30:59;;;;;;;8.60;7.47;;;;;;;;;;5033853;28;20213;-72
2023/07/10 04:33:25;;;;;;;9.53;7.53;;;;;;;;;;5049598;28;20281;-72
2023/07/10 04:35:53;;;;;;;9.07;7.10;;;;;;;;;;5032708;28;20283;-72
2023/07/10 04:38:20;;;;;;;8.83;6.70;;;;;;;;;;5035157;28;20202;-71
2023/07/10 04:40:52;;;;;;;9.00;7.20;;;;;;;;;;5049165;28;20201;-71
2023/07/10 04:43:19;;;;;;;9.40;6.77;;;;;;;;;;5050659;28;20703;-71
2023/07/10 04:45:45;;;;;;;8.80;6.40;;;;;;;;;;5050548;28;20174;-71
2023/07/10 04:48:11;;;;;;;7.20;6.37;;;;;;;;;;5048977;28;20177;-72
2023/07/10 04:50:37;;;;;;;8.47;6.87;;;;;;;;;;5049737;28;20265;-71
2023/07/10 04:53:04;;;;;;;6.77;6.07;;;;;;;;;;5049452;28;20185;-71
2023/07/10 04:55:30;;;;;;;7.80;6.37;;;;;;;;;;5050732;28;20265;-72
2023/07/10 04:57:56;;;;;;;6.80;6.20;;;;;;;;;;5050321;28;20205;-71
2023/07/10 05:00:22;;;;;;;6.93;6.03;;;;;;;;;;5048305;28;20209;-72
2023/07/10 05:02:48;;;;;;;7.10;6.40;;;;;;;;;;5035018;28;20178;-71
2023/07/10 05:05:14;;;;;;;7.77;6.53;;;;;;;;;;5034503;28;20230;-71
2023/07/10 05:07:40;;;;;;;7.97;6.47;;;;;;;;;;5034080;28;20229;-72
2023/07/10 05:10:07;;;;;;;8.47;6.30;;;;;;;;;;5034839;28;20203;-71
2023/07/10 05:12:33;;;;;;;8.33;6.57;;;;;;;;;;5034645;28;20261;-71
2023/07/10 05:15:00;;;;;;;8.37;6.97;;;;;;;;;;5038883;28;20297;-71
2023/07/10 05:17:26;;;;;;;8.83;6.80;;;;;;;;;;5049350;28;20613;-71
2023/07/10 05:19:52;;;;;;;8.07;7.13;;;;;;;;;;5034323;28;20178;-71
2023/07/10 05:22:18;;;;;;;10.90;7.47;;;;;;;;;;5034377;28;20819;-74
2023/07/10 05:24:44;;;;;;;10.57;7.80;;;;;;;;;;5036721;28;20194;-71
2023/07/10 05:27:11;;;;;;;10.07;6.83;;;;;;;;;;5035782;28;20190;-75
2023/07/10 05:29:37;;;;;;;6.77;6.10;;;;;;;;;;5029988;28;20182;-74
2023/07/10 05:32:03;;;;;;;7.50;6.77;;;;;;;;;;5054437;28;20170;-76
2023/07/10 05:34:30;;;;;;;8.00;6.50;;;;;;;;;;5034946;28;20202;-73
2023/07/10 05:36:57;;;;;;;6.90;6.20;;;;;;;;;;5036288;28;20189;-77
2023/07/10 05:39:24;;;;;;;8.27;6.43;;;;;;;;;;5041816;28;20205;-72
2023/07/10 05:41:50;;;;;;;8.77;6.10;;;;;;;;;;5054002;28;20174;-72
2023/07/10 05:44:16;;;;;;;8.17;6.77;;;;;;;;;;5044882;28;20310;-74
2023/07/10 05:46:42;;;;;;;9.90;6.97;;;;;;;;;;5042141;28;20185;-74
2023/07/10 05:49:08;;;;;;;8.73;6.17;;;;;;;;;;5051625;28;20193;-74
2023/07/10 05:51:34;;;;;;;7.87;6.87;;;;;;;;;;5037405;28;20194;-74
2023/07/10 05:54:00;;;;;;;9.43;7.53;;;;;;;;;;5033836;28;20198;-73
2023/07/10 05:56:27;;;;;;;8.13;6.87;;;;;;;;;;5034082;28;20182;-74
2023/07/10 05:58:53;;;;;;;8.17;7.20;;;;;;;;;;5033187;28;20311;-74
2023/07/10 06:01:19;;;;;;;10.70;8.07;;;;;;;;;;5033822;28;20182;-74
2023/07/10 06:03:45;;;;;;;10.43;7.87;;;;;;;;;;5047546;28;20202;-72
2023/07/10 06:06:11;;;;;;;9.97;8.30;;;;;;;;;;5023149;28;20181;-74
2023/07/10 06:08:38;;;;;;;11.40;9.07;;;;;;;;;;5033271;28;20654;-74
2023/07/10 06:11:05;;;;;;;12.43;9.53;;;;;;;;;;5034133;28;20304;-74
2023/07/10 06:13:31;;;;;;;11.53;10.33;;;;;;;;;;5032722;28;20202;-74
2023/07/10 06:15:58;;;;;;;12.47;10.03;;;;;;;;;;5031637;28;20187;-74
2023/07/10 06:18:25;;;;;;;15.00;11.00;;;;;;;;;;5023904;28;20560;-75
2023/07/10 06:20:55;;;;;;;11.37;10.17;;;;;;;;;;5033669;28;20221;-74
2023/07/10 06:23:21;;;;;;;12.93;10.83;;;;;;;;;;5033562;28;20697;-74
2023/07/10 06:25:48;;;;;;;11.60;10.37;;;;;;;;;;5033732;28;20173;-74
2023/07/10 06:28:14;;;;;;;14.67;10.47;;;;;;;;;;5030933;28;20269;-74
2023/07/10 06:30:41;;;;;;;10.83;9.73;;;;;;;;;;5033716;28;20283;-74
2023/07/10 06:33:07;;;;;;;11.73;10.10;;;;;;;;;;5031648;28;20252;-74
2023/07/10 06:35:35;;;;;;;15.40;12.20;;;;;;;;;;5033241;28;20573;-74
2023/07/10 06:38:01;;;;;;;15.87;10.73;;;;;;;;;;5032742;28;20249;-76
2023/07/10 06:40:27;;;;;;;14.93;12.40;;;;;;;;;;5033187;28;20171;-74
2023/07/10 06:42:53;;;;;;;15.10;13.47;;;;;;;;;;5031960;28;20182;-75
2023/07/10 06:45:21;;;;;;;16.67;14.43;;;;;;;;;;5034292;28;20182;-75
2023/07/10 06:47:48;;;;;;;14.73;12.13;;;;;;;;;;5036389;28;20240;-74
2023/07/10 06:50:15;;;;;;;15.50;13.80;;;;;;;;;;5032972;28;20638;-74
2023/07/10 06:52:42;;;;;;;17.77;15.97;;;;;;;;;;5027242;28;20190;-74
2023/07/10 06:55:11;;;;;;;16.90;14.77;;;;;;;;;;5032012;28;20260;-74
2023/07/10 06:57:37;;;;;;;19.47;17.37;;;;;;;;;;5031429;28;20258;-74
2023/07/10 07:00:05;;;;;;;17.17;13.90;;;;;;;;;;5025363;28;20635;-75
2023/07/10 07:02:32;;;;;;;20.77;18.23;;;;;;;;;;5031448;28;20555;-74
2023/07/10 07:04:58;;;;;;;22.57;18.60;;;;;;;;;;5030467;28;20217;-75
2023/07/10 07:07:24;;;;;;;17.67;15.80;;;;;;;;;;5032092;28;20524;-74
2023/07/10 07:09:50;;;;;;;22.40;19.10;;;;;;;;;;5031865;28;20193;-74
2023/07/10 07:12:16;;;;;;;19.50;17.50;;;;;;;;;;5031507;28;20588;-74
2023/07/10 07:14:42;;;;;;;24.33;19.10;;;;;;;;;;5030174;28;20222;-74
2023/07/10 07:17:08;;;;;;;19.20;17.23;;;;;;;;;;5031879;28;20187;-74
2023/07/10 07:19:34;;;;;;;24.30;20.10;;;;;;;;;;5031196;28;20230;-74
2023/07/10 07:22:01;;;;;;;20.10;17.83;;;;;;;;;;5031879;28;20181;-74
2023/07/10 07:24:27;;;;;;;18.40;16.50;;;;;;;;;;5031715;28;20190;-74
2023/07/10 07:26:54;;;;;;;16.97;15.20;;;;;;;;;;5031650;28;20653;-74
2023/07/10 07:29:20;;;;;;;19.63;17.53;;;;;;;;;;5027892;28;20224;-74
2023/07/10 07:31:46;;;;;;;21.63;18.97;;;;;;;;;;5031432;28;20210;-74
2023/07/10 07:34:14;;;;;;;20.03;17.60;;;;;;;;;;5028634;28;20681;-74
2023/07/10 07:36:40;;;;;;;19.90;17.90;;;;;;;;;;5028304;28;20230;-75
2023/07/10 07:39:07;;;;;;;19.03;17.03;;;;;;;;;;5030968;28;20289;-75
2023/07/10 07:41:33;;;;;;;21.80;18.67;;;;;;;;;;5031819;28;20180;-75
2023/07/10 07:44:00;;;;;;;20.30;18.27;;;;;;;;;;5031282;28;20204;-74
2023/07/10 07:46:26;;;;;;;20.57;18.47;;;;;;;;;;5030297;28;20205;-74
2023/07/10 07:48:52;;;;;;;19.60;17.67;;;;;;;;;;5031414;28;20185;-74
2023/07/10 07:51:19;;;;;;;20.57;18.53;;;;;;;;;;5030571;28;20190;-75
2023/07/10 07:53:45;;;;;;;21.67;19.57;;;;;;;;;;5033077;28;20213;-74
2023/07/10 07:56:11;;;;;;;19.97;17.70;;;;;;;;;;5029478;28;20190;-74
2023/07/10 07:58:37;;;;;;;20.60;17.83;;;;;;;;;;5026992;28;20912;-75
2023/07/10 08:01:04;;;;;;;21.00;19.00;;;;;;;;;;5031075;28;20202;-75
2023/07/10 08:03:30;;;;;;;20.87;18.80;;;;;;;;;;5031305;28;20252;-74
2023/07/10 08:05:56;;;;;;;21.30;17.93;;;;;;;;;;5010374;28;20179;-75
2023/07/10 08:08:23;;;;;;;18.73;16.83;;;;;;;;;;5031151;28;20194;-74
2023/07/10 08:10:50;;;;;;;18.87;16.90;;;;;;;;;;5030897;28;20651;-74
2023/07/10 08:13:17;;;;;;;19.27;17.33;;;;;;;;;;5030727;28;20290;-75
2023/07/10 08:15:44;;;;;;;19.23;17.33;;;;;;;;;;5029862;28;20190;-75
2023/07/10 08:18:10;;;;;;;19.47;17.53;;;;;;;;;;5030297;28;20732;-74
2023/07/10 08:20:36;;;;;;;18.57;16.67;;;;;;;;;;5031180;28;20205;-75
2023/07/10 08:23:03;;;;;;;16.87;15.27;;;;;;;;;;5028996;28;20220;-74
2023/07/10 08:25:30;;;;;;;17.97;15.77;;;;;;;;;;5030837;28;20178;-74
2023/07/10 08:27:58;;;;;;;17.90;16.10;;;;;;;;;;5029982;28;20230;-74
2023/07/10 08:30:24;;;;;;;23.40;16.47;;;;;;;;;;5029118;28;20205;-74
2023/07/10 08:32:50;;;;;;;19.27;16.97;;;;;;;;;;5031179;28;20190;-75
2023/07/10 08:35:17;;;;;;;17.00;15.20;;;;;;;;;;5030140;28;20206;-75
2023/07/10 08:37:43;;;;;;;16.37;14.87;;;;;;;;;;5030542;28;20209;-74
2023/07/10 08:40:22;;;;;;;15.83;14.40;;;;;;;;;;5030126;28;20205;-74
2023/07/10 08:42:48;;;;;;;17.03;14.73;;;;;;;;;;5030792;28;20196;-74
2023/07/10 08:45:21;;;;;;;16.07;14.47;;;;;;;;;;5029569;28;20554;-74
2023/07/10 08:47:50;;;;;;;17.47;15.67;;;;;;;;;;5011806;28;20619;-75
2023/07/10 08:50:18;;;;;;;15.80;14.07;;;;;;;;;;5030136;28;20182;-74
2023/07/10 08:53:05;;;;;;;16.10;14.50;;;;;;;;;;5030635;28;20219;-76
2023/07/10 08:55:37;;;;;;;17.37;15.07;;;;;;;;;;5029303;28;20193;-75
2023/07/10 08:58:04;;;;;;;18.20;16.40;;;;;;;;;;5028990;28;20198;-75
2023/07/10 09:00:36;;;;;;;16.57;14.97;;;;;;;;;;5030962;28;20185;-74
2023/07/10 09:03:16;;;;;;;15.20;13.70;;;;;;;;;;5030221;28;20185;-75
2023/07/10 09:05:44;;;;;;;16.50;14.83;;;;;;;;;;5027143;28;20193;-75
2023/07/10 09:08:12;;;;;;;17.77;16.10;;;;;;;;;;5033397;28;20179;-75
2023/07/10 09:10:43;;;;;;;17.13;15.33;;;;;;;;;;5028752;28;20198;-74
2023/07/10 09:13:13;;;;;;;15.87;14.43;;;;;;;;;;5030030;28;20188;-75
2023/07/10 09:15:49;;;;;;;15.77;14.17;;;;;;;;;;5030656;28;20811;-74
2023/07/10 09:18:24;;;;;;;15.63;14.03;;;;;;;;;;5026418;28;20696;-74
2023/07/10 09:20:50;;;;;;;14.93;13.53;;;;;;;;;;5029095;28;20213;-75
2023/07/10 09:23:21;;;;;;;15.60;14.00;;;;;;;;;;5030341;28;20256;-75
2023/07/10 09:25:53;;;;;;;14.77;13.27;;;;;;;;;;5028092;28;20232;-75
2023/07/10 09:28:19;;;;;;;15.43;13.83;;;;;;;;;;5028671;28;20187;-75
2023/07/10 09:30:59;;;;;;;15.23;13.73;;;;;;;;;;5028005;28;20602;-74
2023/07/10 09:33:36;;;;;;;14.30;12.93;;;;;;;;;;5026130;28;20282;-75
2023/07/10 09:36:03;;;;;;;13.27;12.07;;;;;;;;;;5027252;28;20240;-75
2023/07/10 09:38:29;;;;;;;13.33;12.13;;;;;;;;;;5026984;28;20207;-75
2023/07/10 09:40:56;;;;;;;14.17;12.83;;;;;;;;;;5031913;28;20178;-75
2023/07/10 09:43:23;;;;;;;13.63;12.33;;;;;;;;;;5029700;28;20542;-74
2023/07/10 09:45:51;;;;;;;12.67;11.53;;;;;;;;;;5029916;28;20594;-75
2023/07/10 09:48:39;;;;;;;13.27;12.27;;;;;;;;;;5031935;28;20175;-75
2023/07/10 09:51:09;;;;;;;13.20;11.83;;;;;;;;;;5033455;28;20178;-75
2023/07/10 09:53:47;;;;;;;12.77;11.43;;;;;;;;;;5033078;28;20214;-75
2023/07/10 09:56:22;;;;;;;12.60;11.40;;;;;;;;;;5033239;28;20186;-74
2023/07/10 09:58:49;;;;;;;12.90;11.60;;;;;;;;;;5033408;28;20198;-75
2023/07/10 10:01:15;;;;;;;13.13;11.83;;;;;;;;;;5029837;28;20183;-75
2023/07/10 10:03:42;;;;;;;12.43;11.27;;;;;;;;;;5032926;28;20203;-75
2023/07/10 10:06:22;;;;;;;13.10;11.77;;;;;;;;;;5015481;28;20197;-75
2023/07/10 10:08:49;;;;;;;12.60;11.00;;;;;;;;;;5042724;28;20181;-75
2023/07/10 10:11:15;;;;;;;11.20;10.10;;;;;;;;;;5033086;28;20194;-75
2023/07/10 10:13:41;;;;;;;10.83;9.83;;;;;;;;;;5031886;28;20610;-75
2023/07/10 10:16:12;;;;;;;12.77;11.60;;;;;;;;;;5030962;28;20182;-76
2023/07/10 10:18:58;;;;;;;11.97;10.70;;;;;;;;;;5032879;28;20755;-75
2023/07/10 10:21:24;;;;;;;10.60;9.60;;;;;;;;;;5032209;28;20232;-75
2023/07/10 10:23:52;;;;;;;10.37;9.37;;;;;;;;;;5032671;28;20195;-75
2023/07/10 10:26:30;;;;;;;10.10;9.10;;;;;;;;;;5031980;28;20210;-75
2023/07/10 10:29:05;;;;;;;9.20;8.40;;;;;;;;;;5029420;28;20183;-75
2023/07/10 10:31:40;;;;;;;10.00;9.03;;;;;;;;;;5032843;28;20195;-75
2023/07/10 10:34:10;;;;;;;10.00;9.03;;;;;;;;;;5032368;28;20213;-73
2023/07/10 10:36:42;;;;;;;9.63;8.70;;;;;;;;;;5027744;28;21994;-74
2023/07/10 10:39:33;;;;;;;9.50;8.60;;;;;;;;;;5031837;28;20268;-73
2023/07/10 10:42:01;;;;;;;9.80;8.90;;;;;;;;;;5034104;28;20577;-73
2023/07/10 10:44:27;;;;;;;15.37;13.40;;;;;;;;;;5030518;28;20208;-73
2023/07/10 10:46:59;;;;;;;9.50;8.57;;;;;;;;;;5029720;28;20175;-71
2023/07/10 10:49:36;;;;;;;8.43;7.63;;;;;;;;;;5030103;28;20179;-70
2023/07/10 10:52:09;;;;;;;9.27;7.80;;;;;;;;;;5032002;28;20181;-71
2023/07/10 10:54:41;;;;;;;8.20;7.50;;;;;;;;;;5029112;28;20223;-70
2023/07/10 10:57:23;;;;;;;9.30;8.27;;;;;;;;;;5029487;28;20190;-69
2023/07/10 10:59:49;;;;;;;8.43;7.70;;;;;;;;;;5027253;28;20197;-69
2023/07/10 11:02:37;;;;;;;8.70;7.90;;;;;;;;;;5030557;28;20273;-70
2023/07/10 11:05:03;;;;;;;8.60;7.77;;;;;;;;;;5032220;28;20282;-70
2023/07/10 11:07:31;;;;;;;14.50;9.17;;;;;;;;;;5031903;28;20182;-69
2023/07/10 11:09:59;;;;;;;8.80;7.90;;;;;;;;;;5032598;28;20664;-71
2023/07/10 11:12:27;;;;;;;7.97;7.17;;;;;;;;;;5032348;28;20192;-72
2023/07/10 11:14:56;;;;;;;8.50;7.80;;;;;;;;;;5040364;28;20212;-76
2023/07/10 11:17:23;;;;;;;8.10;7.40;;;;;;;;;;5018610;28;20645;-79
2023/07/10 11:19:50;;;;;;;7.97;7.27;;;;;;;;;;5042686;28;20245;-79
2023/07/10 11:22:25;;;;;;;7.97;7.07;;;;;;;;;;5029725;28;20199;-77
2023/07/10 11:24:52;;;;;;;8.53;7.73;;;;;;;;;;5034945;28;20198;-71
2023/07/10 11:27:38;;;;;;;8.30;7.40;;;;;;;;;;5032061;28;20198;-70
2023/07/10 11:30:08;;;;;;;8.87;8.00;;;;;;;;;;5026888;28;20192;-72
2023/07/10 11:32:37;;;;;;;8.43;7.57;;;;;;;;;;5030633;28;20188;-70
2023/07/10 11:35:17;;;;;;;8.03;7.33;;;;;;;;;;5031954;28;20230;-68
2023/07/10 11:37:49;;;;;;;7.80;7.10;;;;;;;;;;5028862;28;20271;-69
2023/07/10 11:40:28;;;;;;;8.10;7.23;;;;;;;;;;5027658;28;20189;-69
2023/07/10 11:42:55;;;;;;;7.43;6.73;;;;;;;;;;5027520;28;20186;-69
2023/07/10 11:45:36;;;;;;;7.13;6.53;;;;;;;;;;5028385;28;20209;-69
2023/07/10 11:48:03;;;;;;;9.00;6.57;;;;;;;;;;5031055;28;20188;-69
2023/07/10 11:50:30;;;;;;;7.40;6.70;;;;;;;;;;5031747;28;20188;-69
2023/07/10 11:53:05;;;;;;;7.40;6.70;;;;;;;;;;5031977;28;20184;-70
2023/07/10 11:55:31;;;;;;;8.30;6.10;;;;;;;;;;5023501;28;20186;-69
2023/07/10 11:58:16;;;;;;;7.13;6.40;;;;;;;;;;5031038;28;20296;-69
2023/07/10 12:00:42;;;;;;;7.27;5.87;;;;;;;;;;5029082;28;20595;-70
2023/07/10 12:03:09;;;;;;;6.53;5.40;;;;;;;;;;5022378;28;20704;-74
2023/07/10 12:05:36;;;;;;;7.47;5.33;;;;;;;;;;5036188;28;20203;-72
2023/07/10 12:08:09;;;;;;;7.43;5.60;;;;;;;;;;5037098;28;20188;-72
2023/07/10 12:10:45;;;;;;;6.90;5.77;;;;;;;;;;5050472;28;20821;-72
2023/07/10 12:13:22;;;;;;;6.93;5.80;;;;;;;;;;5028017;28;20191;-73
2023/07/10 12:15:49;;;;;;;6.57;4.80;;;;;;;;;;5027654;28;20173;-72
2023/07/10 12:18:16;;;;;;;7.30;5.00;;;;;;;;;;5030945;28;20215;-73
2023/07/10 12:20:42;;;;;;;6.57;5.40;;;;;;;;;;5031612;28;20689;-74
2023/07/10 12:23:13;;;;;;;4.93;4.53;;;;;;;;;;5031546;28;20199;-73
2023/07/10 12:25:46;;;;;;;4.97;4.57;;;;;;;;;;5031724;28;20306;-70
2023/07/10 12:28:14;;;;;;;5.53;4.60;;;;;;;;;;5029617;28;20197;-69
2023/07/10 12:30:40;;;;;;;5.00;4.50;;;;;;;;;;5013768;28;20192;-71
2023/07/10 12:33:25;;;;;;;6.17;4.50;;;;;;;;;;5026969;28;20221;-71
2023/07/10 12:35:51;;;;;;;4.73;4.20;;;;;;;;;;5027281;28;20595;-69
2023/07/10 12:38:17;;;;;;;5.17;4.67;;;;;;;;;;5026962;28;20754;-70
2023/07/10 12:40:44;;;;;;;5.27;4.17;;;;;;;;;;5012646;28;20285;-73
2023/07/10 12:43:24;;;;;;;4.73;4.10;;;;;;;;;;5030206;28;20197;-72
2023/07/10 12:46:01;;;;;;;4.00;3.60;;;;;;;;;;5030710;28;20242;-74
2023/07/10 12:48:29;;;;;;;10.53;4.50;;;;;;;;;;5029029;28;20184;-74
2023/07/10 12:50:57;;;;;;;4.77;4.37;;;;;;;;;;5030750;28;20204;-74
2023/07/10 12:53:25;;;;;;;4.60;4.20;;;;;;;;;;5030569;28;20264;-78
2023/07/10 12:55:52;;;;;;;4.90;4.50;;;;;;;;;;5030103;28;20215;-73
2023/07/10 12:58:19;;;;;;;6.17;4.57;;;;;;;;;;5029530;28;20205;-74
2023/07/10 13:00:47;;;;;;;5.30;4.00;;;;;;;;;;5030724;28;20191;-74
2023/07/10 13:03:21;;;;;;;4.37;3.97;;;;;;;;;;5027865;28;20265;-74
2023/07/10 13:05:57;;;;;;;4.93;4.53;;;;;;;;;;5030641;28;20170;-73
2023/07/10 13:08:24;;;;;;;4.60;4.13;;;;;;;;;;5029923;28;20193;-77
2023/07/10 13:10:52;;;;;;;4.70;4.30;;;;;;;;;;5030325;28;20171;-74
2023/07/10 13:13:19;;;;;;;5.70;4.17;;;;;;;;;;5031154;28;20211;-74
2023/07/10 13:15:46;;;;;;;4.00;3.70;;;;;;;;;;5030286;28;20178;-75
2023/07/10 13:18:21;;;;;;;4.10;3.57;;;;;;;;;;5012404;28;20211;-73
2023/07/10 13:20:47;;;;;;;4.63;4.23;;;;;;;;;;5029498;28;20191;-75
2023/07/10 13:23:13;;;;;;;4.00;3.70;;;;;;;;;;5031516;28;20203;-76
2023/07/10 13:25:40;;;;;;;4.17;3.83;;;;;;;;;;5033756;28;20184;-74
2023/07/10 13:28:15;;;;;;;4.00;3.60;;;;;;;;;;5032947;28;20194;-74
2023/07/10 13:30:41;;;;;;;5.13;3.63;;;;;;;;;;5032971;28;20191;-74
2023/07/10 13:33:15;;;;;;;3.97;3.57;;;;;;;;;;5029813;28;20203;-75
2023/07/10 13:35:42;;;;;;;3.30;3.00;;;;;;;;;;5033054;28;20179;-77
2023/07/10 13:38:15;;;;;;;3.40;3.20;;;;;;;;;;5033323;28;20234;-77
2023/07/10 13:40:41;;;;;;;3.40;3.07;;;;;;;;;;5032565;28;20247;-74
2023/07/10 13:43:14;;;;;;;3.83;3.30;;;;;;;;;;5033800;28;20256;-74
2023/07/10 13:45:41;;;;;;;3.60;3.07;;;;;;;;;;5032228;28;20185;-73
2023/07/10 13:48:09;;;;;;;3.50;3.20;;;;;;;;;;5030799;28;20266;-73
2023/07/10 13:50:35;;;;;;;3.80;3.30;;;;;;;;;;5030816;28;20215;-74
2023/07/10 13:53:01;;;;;;;3.25;3.00;;;;;;;;;;5032683;28;20603;-73
2023/07/10 13:55:28;;;;;;;3.30;3.00;;;;;;;;;;5032106;28;20231;-73
2023/07/10 13:57:54;;;;;;;3.90;3.07;;;;;;;;;;5033434;28;20282;-74
2023/07/10 14:00:20;;;;;;;4.22;3.30;;;;;;;;;;5032791;28;20180;-74
2023/07/10 14:02:51;;;;;;;4.65;2.90;;;;;;;;;;5031837;28;20188;-77
2023/07/10 14:05:18;;;;;;;3.25;2.95;;;;;;;;;;5033182;28;20201;-75
2023/07/10 14:07:45;;;;;;;3.13;2.83;;;;;;;;;;5033187;28;20205;-77
2023/07/10 14:10:16;;;;;;;3.92;3.28;;;;;;;;;;5031220;28;20194;-76
2023/07/10 14:12:42;;;;;;;3.50;3.20;;;;;;;;;;5036224;28;20261;-75
2023/07/10 14:15:13;;;;;;;3.40;3.10;;;;;;;;;;5033877;28;20196;-74
2023/07/10 14:17:40;;;;;;;5.47;3.50;;;;;;;;;;5033302;28;20197;-75
2023/07/10 14:20:07;;;;;;;4.13;3.72;;;;;;;;;;5032959;28;20181;-73
2023/07/10 14:22:33;;;;;;;3.72;3.42;;;;;;;;;;5029292;28;20198;-75
2023/07/10 14:25:00;;;;;;;4.88;3.70;;;;;;;;;;5032589;28;20593;-72
2023/07/10 14:27:27;;;;;;;3.63;3.42;;;;;;;;;;5030093;28;20261;-74
2023/07/10 14:29:55;;;;;;;3.60;3.30;;;;;;;;;;5029717;28;20192;-72
2023/07/10 14:32:23;;;;;;;3.05;2.85;;;;;;;;;;5033365;28;20185;-72
2023/07/10 14:34:49;;;;;;;4.65;3.60;;;;;;;;;;5032279;28;20216;-72
2023/07/10 14:37:19;;;;;;;3.53;3.22;;;;;;;;;;5032928;28;20194;-72
2023/07/10 14:39:47;;;;;;;5.13;2.90;;;;;;;;;;5029781;28;20211;-74
2023/07/10 14:42:15;;;;;;;3.50;3.20;;;;;;;;;;5033217;28;20167;-72